sensor_id;sensor_type;location;lat;lon;timestamp;temperature;humidity
11140;DHT22;5624;49.388;11.350;2023-07-20T00:01:20;16.30;93.80
11140;DHT22;5624;49.388;11.350;2023-07-20T00:03:45;16.40;95.10
11140;DHT22;5624;49.388;11.350;2023-07-20T00:06:13;16.40;94.80
11140;DHT22;5624;49.388;11.350;2023-07-20T00:08:39;16.40;94.70
11140;DHT22;5624;49.388;11.350;2023-07-20T00:11:04;16.40;94.90
11140;DHT22;5624;49.388;11.350;2023-07-20T00:13:30;16.40;95.50
11140;DHT22;5624;49.388;11.350;2023-07-20T00:15:55;16.30;95.60
11140;DHT22;5624;49.388;11.350;2023-07-20T00:18:21;16.40;95.90
11140;DHT22;5624;49.388;11.350;2023-07-20T00:20:47;16.30;96.50
11140;DHT22;5624;49.388;11.350;2023-07-20T00:23:13;16.50;96.40
11140;DHT22;5624;49.388;11.350;2023-07-20T00:25:38;16.60;95.60
11140;DHT22;5624;49.388;11.350;2023-07-20T00:28:04;16.60;93.60
11140;DHT22;5624;49.388;11.350;2023-07-20T00:30:29;16.60;94.80
11140;DHT22;5624;49.388;11.350;2023-07-20T00:32:55;16.60;95.00
11140;DHT22;5624;49.388;11.350;2023-07-20T00:35:20;16.80;94.50
11140;DHT22;5624;49.388;11.350;2023-07-20T00:37:46;16.80;93.90
11140;DHT22;5624;49.388;11.350;2023-07-20T00:40:11;16.90;93.30
11140;DHT22;5624;49.388;11.350;2023-07-20T00:42:37;17.00;92.90
11140;DHT22;5624;49.388;11.350;2023-07-20T00:45:03;16.90;92.80
11140;DHT22;5624;49.388;11.350;2023-07-20T00:47:29;16.80;92.10
11140;DHT22;5624;49.388;11.350;2023-07-20T00:49:55;16.80;93.00
11140;DHT22;5624;49.388;11.350;2023-07-20T00:52:22;16.80;93.20
11140;DHT22;5624;49.388;11.350;2023-07-20T00:54:49;16.80;93.30
11140;DHT22;5624;49.388;11.350;2023-07-20T00:57:15;16.70;92.90
11140;DHT22;5624;49.388;11.350;2023-07-20T00:59:44;16.60;93.30
11140;DHT22;5624;49.388;11.350;2023-07-20T01:02:10;16.50;94.00
11140;DHT22;5624;49.388;11.350;2023-07-20T01:04:35;16.40;94.30
11140;DHT22;5624;49.388;11.350;2023-07-20T01:09:51;16.10;94.30
11140;DHT22;5624;49.388;11.350;2023-07-20T01:12:22;16.00;94.80
11140;DHT22;5624;49.388;11.350;2023-07-20T01:14:51;15.90;95.20
11140;DHT22;5624;49.388;11.350;2023-07-20T01:17:17;15.80;95.80
11140;DHT22;5624;49.388;11.350;2023-07-20T01:19:43;15.80;96.60
11140;DHT22;5624;49.388;11.350;2023-07-20T01:28:06;15.70;97.70
11140;DHT22;5624;49.388;11.350;2023-07-20T01:33:28;15.80;98.20
11140;DHT22;5624;49.388;11.350;2023-07-20T01:35:57;15.80;98.50
11140;DHT22;5624;49.388;11.350;2023-07-20T01:38:24;15.80;98.30
11140;DHT22;5624;49.388;11.350;2023-07-20T01:40:50;15.80;98.50
11140;DHT22;5624;49.388;11.350;2023-07-20T01:43:17;15.80;98.90
11140;DHT22;5624;49.388;11.350;2023-07-20T01:45:43;15.90;99.20
11140;DHT22;5624;49.388;11.350;2023-07-20T01:48:09;15.90;98.30
11140;DHT22;5624;49.388;11.350;2023-07-20T01:50:34;15.90;98.40
11140;DHT22;5624;49.388;11.350;2023-07-20T01:53:00;15.90;98.00
11140;DHT22;5624;49.388;11.350;2023-07-20T01:55:26;15.80;98.50
11140;DHT22;5624;49.388;11.350;2023-07-20T01:57:52;15.80;98.60
11140;DHT22;5624;49.388;11.350;2023-07-20T02:00:18;15.70;99.10
11140;DHT22;5624;49.388;11.350;2023-07-20T02:02:46;15.70;99.60
11140;DHT22;5624;49.388;11.350;2023-07-20T02:05:12;15.70;99.90
11140;DHT22;5624;49.388;11.350;2023-07-20T02:07:38;15.80;99.90
11140;DHT22;5624;49.388;11.350;2023-07-20T02:10:03;15.90;99.90
11140;DHT22;5624;49.388;11.350;2023-07-20T02:12:29;15.90;99.90
11140;DHT22;5624;49.388;11.350;2023-07-20T02:14:55;16.00;99.90
11140;DHT22;5624;49.388;11.350;2023-07-20T02:17:20;16.10;99.90
11140;DHT22;5624;49.388;11.350;2023-07-20T02:19:46;16.10;98.90
11140;DHT22;5624;49.388;11.350;2023-07-20T02:22:14;16.20;98.70
11140;DHT22;5624;49.388;11.350;2023-07-20T02:24:40;16.20;98.10
11140;DHT22;5624;49.388;11.350;2023-07-20T02:27:06;16.30;97.20
11140;DHT22;5624;49.388;11.350;2023-07-20T02:29:32;16.30;97.00
11140;DHT22;5624;49.388;11.350;2023-07-20T02:31:57;16.30;96.80
11140;DHT22;5624;49.388;11.350;2023-07-20T02:34:23;16.30;96.30
11140;DHT22;5624;49.388;11.350;2023-07-20T02:36:49;16.20;96.40
11140;DHT22;5624;49.388;11.350;2023-07-20T02:39:15;16.30;96.50
11140;DHT22;5624;49.388;11.350;2023-07-20T02:41:41;16.30;96.00
11140;DHT22;5624;49.388;11.350;2023-07-20T02:44:07;16.30;95.90
11140;DHT22;5624;49.388;11.350;2023-07-20T02:46:32;16.40;95.00
11140;DHT22;5624;49.388;11.350;2023-07-20T02:48:59;16.40;94.50
11140;DHT22;5624;49.388;11.350;2023-07-20T02:51:25;16.40;95.10
11140;DHT22;5624;49.388;11.350;2023-07-20T02:53:50;16.40;95.00
11140;DHT22;5624;49.388;11.350;2023-07-20T02:56:16;16.50;94.70
11140;DHT22;5624;49.388;11.350;2023-07-20T02:58:43;16.50;94.50
11140;DHT22;5624;49.388;11.350;2023-07-20T03:01:09;16.60;94.10
11140;DHT22;5624;49.388;11.350;2023-07-20T03:03:36;16.60;93.50
11140;DHT22;5624;49.388;11.350;2023-07-20T03:06:05;16.60;93.50
11140;DHT22;5624;49.388;11.350;2023-07-20T03:08:30;16.50;93.10
11140;DHT22;5624;49.388;11.350;2023-07-20T03:10:56;16.50;93.60
11140;DHT22;5624;49.388;11.350;2023-07-20T03:13:21;16.50;93.30
11140;DHT22;5624;49.388;11.350;2023-07-20T03:15:47;16.50;93.20
11140;DHT22;5624;49.388;11.350;2023-07-20T03:18:13;16.40;94.30
11140;DHT22;5624;49.388;11.350;2023-07-20T03:20:38;16.40;93.90
11140;DHT22;5624;49.388;11.350;2023-07-20T03:23:04;16.40;94.40
11140;DHT22;5624;49.388;11.350;2023-07-20T03:25:30;16.50;94.10
11140;DHT22;5624;49.388;11.350;2023-07-20T03:27:55;16.50;94.10
11140;DHT22;5624;49.388;11.350;2023-07-20T03:30:21;16.50;93.60
11140;DHT22;5624;49.388;11.350;2023-07-20T03:32:46;16.50;93.80
11140;DHT22;5624;49.388;11.350;2023-07-20T03:35:12;16.50;93.60
11140;DHT22;5624;49.388;11.350;2023-07-20T03:37:38;16.50;94.00
11140;DHT22;5624;49.388;11.350;2023-07-20T03:40:04;16.60;93.90
11140;DHT22;5624;49.388;11.350;2023-07-20T03:42:30;16.60;94.00
11140;DHT22;5624;49.388;11.350;2023-07-20T03:44:56;16.70;93.70
11140;DHT22;5624;49.388;11.350;2023-07-20T03:47:21;16.70;93.40
11140;DHT22;5624;49.388;11.350;2023-07-20T03:49:48;16.60;93.60
11140;DHT22;5624;49.388;11.350;2023-07-20T03:52:14;16.70;93.60
11140;DHT22;5624;49.388;11.350;2023-07-20T03:54:39;16.70;93.50
11140;DHT22;5624;49.388;11.350;2023-07-20T03:57:05;16.70;93.80
11140;DHT22;5624;49.388;11.350;2023-07-20T03:59:30;16.70;93.50
11140;DHT22;5624;49.388;11.350;2023-07-20T04:01:56;16.70;93.50
11140;DHT22;5624;49.388;11.350;2023-07-20T04:04:22;16.80;92.80
11140;DHT22;5624;49.388;11.350;2023-07-20T04:06:47;16.80;92.70
11140;DHT22;5624;49.388;11.350;2023-07-20T04:09:13;16.80;92.60
11140;DHT22;5624;49.388;11.350;2023-07-20T04:11:39;16.80;92.90
11140;DHT22;5624;49.388;11.350;2023-07-20T04:14:05;16.70;92.90
11140;DHT22;5624;49.388;11.350;2023-07-20T04:16:30;16.70;93.20
11140;DHT22;5624;49.388;11.350;2023-07-20T04:18:56;16.70;93.10
11140;DHT22;5624;49.388;11.350;2023-07-20T04:21:23;16.70;93.90
11140;DHT22;5624;49.388;11.350;2023-07-20T04:23:49;16.70;93.90
11140;DHT22;5624;49.388;11.350;2023-07-20T04:26:14;16.70;93.70
11140;DHT22;5624;49.388;11.350;2023-07-20T04:28:40;16.80;93.30
11140;DHT22;5624;49.388;11.350;2023-07-20T04:31:15;16.80;93.00
11140;DHT22;5624;49.388;11.350;2023-07-20T04:33:41;17.00;92.80
11140;DHT22;5624;49.388;11.350;2023-07-20T04:36:07;17.10;92.00
11140;DHT22;5624;49.388;11.350;2023-07-20T04:38:33;17.30;90.60
11140;DHT22;5624;49.388;11.350;2023-07-20T04:40:59;17.40;89.30
11140;DHT22;5624;49.388;11.350;2023-07-20T04:43:25;17.70;89.00
11140;DHT22;5624;49.388;11.350;2023-07-20T04:45:51;18.10;86.20
11140;DHT22;5624;49.388;11.350;2023-07-20T04:48:17;18.10;85.90
11140;DHT22;5624;49.388;11.350;2023-07-20T04:50:45;18.10;85.80
11140;DHT22;5624;49.388;11.350;2023-07-20T04:53:11;18.00;85.90
11140;DHT22;5624;49.388;11.350;2023-07-20T04:55:38;17.90;86.30
11140;DHT22;5624;49.388;11.350;2023-07-20T04:58:04;17.90;86.90
11140;DHT22;5624;49.388;11.350;2023-07-20T05:00:31;17.90;85.90
11140;DHT22;5624;49.388;11.350;2023-07-20T05:02:56;18.00;85.80
11140;DHT22;5624;49.388;11.350;2023-07-20T05:05:22;18.00;85.90
11140;DHT22;5624;49.388;11.350;2023-07-20T05:07:48;18.10;85.80
11140;DHT22;5624;49.388;11.350;2023-07-20T05:10:13;18.20;85.40
11140;DHT22;5624;49.388;11.350;2023-07-20T05:12:39;18.30;84.90
11140;DHT22;5624;49.388;11.350;2023-07-20T05:15:05;18.70;83.20
11140;DHT22;5624;49.388;11.350;2023-07-20T05:17:30;19.00;81.90
11140;DHT22;5624;49.388;11.350;2023-07-20T05:19:56;19.30;79.80
11140;DHT22;5624;49.388;11.350;2023-07-20T05:22:21;19.50;78.80
11140;DHT22;5624;49.388;11.350;2023-07-20T05:24:47;19.60;78.70
11140;DHT22;5624;49.388;11.350;2023-07-20T05:27:13;19.70;76.80
11140;DHT22;5624;49.388;11.350;2023-07-20T05:29:44;19.70;75.50
11140;DHT22;5624;49.388;11.350;2023-07-20T05:32:09;19.70;73.00
11140;DHT22;5624;49.388;11.350;2023-07-20T05:34:35;19.60;72.60
11140;DHT22;5624;49.388;11.350;2023-07-20T05:37:00;19.50;71.90
11140;DHT22;5624;49.388;11.350;2023-07-20T05:39:26;19.50;71.90
11140;DHT22;5624;49.388;11.350;2023-07-20T05:41:51;19.50;71.70
11140;DHT22;5624;49.388;11.350;2023-07-20T05:44:17;19.50;72.10
11140;DHT22;5624;49.388;11.350;2023-07-20T05:46:42;19.30;72.50
11140;DHT22;5624;49.388;11.350;2023-07-20T05:49:08;19.40;73.20
11140;DHT22;5624;49.388;11.350;2023-07-20T05:51:34;19.70;73.10
11140;DHT22;5624;49.388;11.350;2023-07-20T05:53:59;20.10;71.50
11140;DHT22;5624;49.388;11.350;2023-07-20T05:56:25;20.30;70.20
11140;DHT22;5624;49.388;11.350;2023-07-20T05:58:50;20.40;68.90
11140;DHT22;5624;49.388;11.350;2023-07-20T06:01:16;20.40;69.40
11140;DHT22;5624;49.388;11.350;2023-07-20T06:03:43;20.50;68.40
11140;DHT22;5624;49.388;11.350;2023-07-20T06:06:09;20.50;66.00
11140;DHT22;5624;49.388;11.350;2023-07-20T06:08:37;20.60;66.10
11140;DHT22;5624;49.388;11.350;2023-07-20T06:11:03;20.80;64.80
11140;DHT22;5624;49.388;11.350;2023-07-20T06:13:28;21.00;62.70
11140;DHT22;5624;49.388;11.350;2023-07-20T06:15:54;21.20;62.80
11140;DHT22;5624;49.388;11.350;2023-07-20T06:18:22;22.20;60.20
11140;DHT22;5624;49.388;11.350;2023-07-20T06:20:51;22.90;57.00
11140;DHT22;5624;49.388;11.350;2023-07-20T06:23:20;22.90;57.30
11140;DHT22;5624;49.388;11.350;2023-07-20T06:25:46;22.50;56.90
11140;DHT22;5624;49.388;11.350;2023-07-20T06:28:12;22.30;57.50
11140;DHT22;5624;49.388;11.350;2023-07-20T06:30:37;22.20;56.50
11140;DHT22;5624;49.388;11.350;2023-07-20T06:33:03;22.00;58.10
11140;DHT22;5624;49.388;11.350;2023-07-20T06:35:28;22.20;57.40
11140;DHT22;5624;49.388;11.350;2023-07-20T06:37:54;23.40;55.60
11140;DHT22;5624;49.388;11.350;2023-07-20T06:40:21;23.40;54.20
11140;DHT22;5624;49.388;11.350;2023-07-20T06:42:46;23.60;53.40
11140;DHT22;5624;49.388;11.350;2023-07-20T06:45:12;24.00;54.50
11140;DHT22;5624;49.388;11.350;2023-07-20T06:47:38;24.40;51.10
11140;DHT22;5624;49.388;11.350;2023-07-20T06:50:09;24.20;51.10
11140;DHT22;5624;49.388;11.350;2023-07-20T06:52:35;24.20;50.80
11140;DHT22;5624;49.388;11.350;2023-07-20T06:55:00;24.00;51.10
11140;DHT22;5624;49.388;11.350;2023-07-20T06:57:26;23.50;51.10
11140;DHT22;5624;49.388;11.350;2023-07-20T06:59:52;24.50;50.80
11140;DHT22;5624;49.388;11.350;2023-07-20T07:02:19;24.40;48.90
11140;DHT22;5624;49.388;11.350;2023-07-20T07:04:44;23.50;50.60
11140;DHT22;5624;49.388;11.350;2023-07-20T07:07:15;22.80;53.30
11140;DHT22;5624;49.388;11.350;2023-07-20T07:09:41;22.10;55.50
11140;DHT22;5624;49.388;11.350;2023-07-20T07:12:07;21.30;57.40
11140;DHT22;5624;49.388;11.350;2023-07-20T07:14:33;20.80;58.90
11140;DHT22;5624;49.388;11.350;2023-07-20T07:16:59;20.90;61.40
11140;DHT22;5624;49.388;11.350;2023-07-20T07:19:25;22.20;58.10
11140;DHT22;5624;49.388;11.350;2023-07-20T07:21:51;23.50;56.30
11140;DHT22;5624;49.388;11.350;2023-07-20T07:24:16;24.60;52.50
11140;DHT22;5624;49.388;11.350;2023-07-20T07:26:42;25.00;49.10
11140;DHT22;5624;49.388;11.350;2023-07-20T07:29:08;25.50;49.30
11140;DHT22;5624;49.388;11.350;2023-07-20T07:31:34;26.70;49.50
11140;DHT22;5624;49.388;11.350;2023-07-20T07:34:01;27.40;44.10
11140;DHT22;5624;49.388;11.350;2023-07-20T07:36:27;27.20;42.30
11140;DHT22;5624;49.388;11.350;2023-07-20T07:38:53;26.40;44.10
11140;DHT22;5624;49.388;11.350;2023-07-20T07:41:18;26.20;43.40
11140;DHT22;5624;49.388;11.350;2023-07-20T07:43:44;26.90;42.20
11140;DHT22;5624;49.388;11.350;2023-07-20T07:46:10;27.40;41.50
11140;DHT22;5624;49.388;11.350;2023-07-20T07:48:35;27.80;40.30
11140;DHT22;5624;49.388;11.350;2023-07-20T07:51:00;28.20;39.70
11140;DHT22;5624;49.388;11.350;2023-07-20T07:53:26;27.30;39.30
11140;DHT22;5624;49.388;11.350;2023-07-20T07:55:52;26.30;41.20
11140;DHT22;5624;49.388;11.350;2023-07-20T07:58:18;25.40;42.90
11140;DHT22;5624;49.388;11.350;2023-07-20T08:00:43;25.70;44.60
11140;DHT22;5624;49.388;11.350;2023-07-20T08:03:10;26.80;43.60
11140;DHT22;5624;49.388;11.350;2023-07-20T08:05:35;27.10;40.30
11140;DHT22;5624;49.388;11.350;2023-07-20T08:08:02;27.50;40.00
11140;DHT22;5624;49.388;11.350;2023-07-20T08:10:29;27.60;39.70
11140;DHT22;5624;49.388;11.350;2023-07-20T08:12:54;26.80;40.20
11140;DHT22;5624;49.388;11.350;2023-07-20T08:15:20;25.80;42.10
11140;DHT22;5624;49.388;11.350;2023-07-20T08:17:45;25.10;44.80
11140;DHT22;5624;49.388;11.350;2023-07-20T08:20:12;24.30;46.20
11140;DHT22;5624;49.388;11.350;2023-07-20T08:22:38;23.80;47.50
11140;DHT22;5624;49.388;11.350;2023-07-20T08:25:06;23.40;48.60
11140;DHT22;5624;49.388;11.350;2023-07-20T08:27:31;23.00;48.40
11140;DHT22;5624;49.388;11.350;2023-07-20T08:29:57;23.30;50.00
11140;DHT22;5624;49.388;11.350;2023-07-20T08:32:23;24.70;47.10
11140;DHT22;5624;49.388;11.350;2023-07-20T08:34:48;25.10;44.70
11140;DHT22;5624;49.388;11.350;2023-07-20T08:37:14;24.70;44.00
11140;DHT22;5624;49.388;11.350;2023-07-20T08:39:39;24.30;45.70
11140;DHT22;5624;49.388;11.350;2023-07-20T08:42:05;23.70;46.40
11140;DHT22;5624;49.388;11.350;2023-07-20T08:44:35;23.20;47.30
11140;DHT22;5624;49.388;11.350;2023-07-20T08:47:02;23.70;49.90
11140;DHT22;5624;49.388;11.350;2023-07-20T08:49:29;25.10;43.10
11140;DHT22;5624;49.388;11.350;2023-07-20T08:51:57;26.20;41.20
11140;DHT22;5624;49.388;11.350;2023-07-20T08:54:24;26.90;40.00
11140;DHT22;5624;49.388;11.350;2023-07-20T08:56:54;27.70;35.40
11140;DHT22;5624;49.388;11.350;2023-07-20T08:59:22;28.10;36.80
11140;DHT22;5624;49.388;11.350;2023-07-20T09:01:48;28.60;34.30
11140;DHT22;5624;49.388;11.350;2023-07-20T09:04:15;28.30;32.30
11140;DHT22;5624;49.388;11.350;2023-07-20T09:06:41;28.30;35.30
11140;DHT22;5624;49.388;11.350;2023-07-20T09:09:07;28.70;32.30
11140;DHT22;5624;49.388;11.350;2023-07-20T09:11:32;29.20;34.50
11140;DHT22;5624;49.388;11.350;2023-07-20T09:14:06;28.30;33.90
11140;DHT22;5624;49.388;11.350;2023-07-20T09:16:32;27.30;34.60
11140;DHT22;5624;49.388;11.350;2023-07-20T09:18:58;25.90;36.00
11140;DHT22;5624;49.388;11.350;2023-07-20T09:21:29;25.00;38.30
11140;DHT22;5624;49.388;11.350;2023-07-20T09:23:56;24.40;40.60
11140;DHT22;5624;49.388;11.350;2023-07-20T09:26:22;23.80;39.80
11140;DHT22;5624;49.388;11.350;2023-07-20T09:28:49;23.70;41.70
11140;DHT22;5624;49.388;11.350;2023-07-20T09:31:20;24.90;41.20
11140;DHT22;5624;49.388;11.350;2023-07-20T09:33:47;26.30;35.10
11140;DHT22;5624;49.388;11.350;2023-07-20T09:36:13;27.60;35.40
11140;DHT22;5624;49.388;11.350;2023-07-20T09:38:40;27.20;34.00
11140;DHT22;5624;49.388;11.350;2023-07-20T09:41:06;26.50;35.80
11140;DHT22;5624;49.388;11.350;2023-07-20T09:43:34;26.30;36.20
11140;DHT22;5624;49.388;11.350;2023-07-20T09:45:59;25.40;37.80
11140;DHT22;5624;49.388;11.350;2023-07-20T09:48:25;24.80;39.50
11140;DHT22;5624;49.388;11.350;2023-07-20T09:50:52;24.10;39.80
11140;DHT22;5624;49.388;11.350;2023-07-20T09:53:19;23.70;40.70
11140;DHT22;5624;49.388;11.350;2023-07-20T09:55:46;23.20;41.40
11140;DHT22;5624;49.388;11.350;2023-07-20T09:58:12;24.00;43.30
11140;DHT22;5624;49.388;11.350;2023-07-20T10:00:39;25.40;40.00
11140;DHT22;5624;49.388;11.350;2023-07-20T10:03:05;26.40;37.90
11140;DHT22;5624;49.388;11.350;2023-07-20T10:05:36;26.20;34.60
11140;DHT22;5624;49.388;11.350;2023-07-20T10:08:04;25.70;34.80
11140;DHT22;5624;49.388;11.350;2023-07-20T10:10:33;26.40;35.60
11140;DHT22;5624;49.388;11.350;2023-07-20T10:13:01;26.30;34.90
11140;DHT22;5624;49.388;11.350;2023-07-20T10:15:37;25.90;35.80
11140;DHT22;5624;49.388;11.350;2023-07-20T10:18:27;26.50;35.20
11140;DHT22;5624;49.388;11.350;2023-07-20T10:20:55;27.50;34.80
11140;DHT22;5624;49.388;11.350;2023-07-20T10:23:22;28.20;33.90
11140;DHT22;5624;49.388;11.350;2023-07-20T10:25:49;28.80;34.30
11140;DHT22;5624;49.388;11.350;2023-07-20T10:28:15;28.70;31.70
11140;DHT22;5624;49.388;11.350;2023-07-20T10:30:41;28.10;31.90
11140;DHT22;5624;49.388;11.350;2023-07-20T10:33:08;27.00;33.70
11140;DHT22;5624;49.388;11.350;2023-07-20T10:35:55;26.10;34.50
11140;DHT22;5624;49.388;11.350;2023-07-20T10:38:56;25.50;36.10
11140;DHT22;5624;49.388;11.350;2023-07-20T10:43:50;25.40;35.40
11140;DHT22;5624;49.388;11.350;2023-07-20T10:46:34;25.00;35.20
11140;DHT22;5624;49.388;11.350;2023-07-20T10:49:05;24.70;36.40
11140;DHT22;5624;49.388;11.350;2023-07-20T10:51:46;24.40;36.50
11140;DHT22;5624;49.388;11.350;2023-07-20T10:56:42;23.90;39.10
11140;DHT22;5624;49.388;11.350;2023-07-20T10:59:36;24.10;38.40
11140;DHT22;5624;49.388;11.350;2023-07-20T11:02:07;24.90;39.30
11140;DHT22;5624;49.388;11.350;2023-07-20T11:04:44;26.00;38.40
11140;DHT22;5624;49.388;11.350;2023-07-20T11:07:10;26.60;37.60
11140;DHT22;5624;49.388;11.350;2023-07-20T11:09:37;27.20;37.60
11140;DHT22;5624;49.388;11.350;2023-07-20T11:12:10;27.00;32.50
11140;DHT22;5624;49.388;11.350;2023-07-20T11:14:41;26.50;34.30
11140;DHT22;5624;49.388;11.350;2023-07-20T11:17:14;26.00;35.70
11140;DHT22;5624;49.388;11.350;2023-07-20T11:19:41;25.50;36.00
11140;DHT22;5624;49.388;11.350;2023-07-20T11:22:06;26.00;34.60
11140;DHT22;5624;49.388;11.350;2023-07-20T11:24:39;26.70;34.50
11140;DHT22;5624;49.388;11.350;2023-07-20T11:27:05;27.40;35.10
11140;DHT22;5624;49.388;11.350;2023-07-20T11:29:31;27.80;32.90
11140;DHT22;5624;49.388;11.350;2023-07-20T11:31:57;28.20;31.10
11140;DHT22;5624;49.388;11.350;2023-07-20T11:34:24;28.50;32.60
11140;DHT22;5624;49.388;11.350;2023-07-20T11:36:51;29.00;34.90
11140;DHT22;5624;49.388;11.350;2023-07-20T11:39:19;29.30;32.60
11140;DHT22;5624;49.388;11.350;2023-07-20T11:41:49;29.40;29.60
11140;DHT22;5624;49.388;11.350;2023-07-20T11:44:18;29.00;27.60
11140;DHT22;5624;49.388;11.350;2023-07-20T11:46:44;28.70;27.00
11140;DHT22;5624;49.388;11.350;2023-07-20T11:49:11;28.60;27.50
11140;DHT22;5624;49.388;11.350;2023-07-20T11:51:39;28.40;26.50
11140;DHT22;5624;49.388;11.350;2023-07-20T11:54:07;27.60;27.50
11140;DHT22;5624;49.388;11.350;2023-07-20T11:56:33;27.00;29.70
11140;DHT22;5624;49.388;11.350;2023-07-20T11:58:59;26.80;29.60
11140;DHT22;5624;49.388;11.350;2023-07-20T12:01:27;26.90;30.30
11140;DHT22;5624;49.388;11.350;2023-07-20T12:04:01;27.50;29.40
11140;DHT22;5624;49.388;11.350;2023-07-20T12:06:30;27.60;29.90
11140;DHT22;5624;49.388;11.350;2023-07-20T12:08:57;27.70;30.60
11140;DHT22;5624;49.388;11.350;2023-07-20T12:11:38;27.70;30.70
11140;DHT22;5624;49.388;11.350;2023-07-20T12:14:07;28.30;30.40
11140;DHT22;5624;49.388;11.350;2023-07-20T12:16:35;28.10;27.70
11140;DHT22;5624;49.388;11.350;2023-07-20T12:19:08;28.00;28.20
11140;DHT22;5624;49.388;11.350;2023-07-20T12:21:34;28.20;28.20
11140;DHT22;5624;49.388;11.350;2023-07-20T12:24:02;28.10;29.50
11140;DHT22;5624;49.388;11.350;2023-07-20T12:26:30;27.90;29.40
11140;DHT22;5624;49.388;11.350;2023-07-20T12:28:56;28.10;29.50
11140;DHT22;5624;49.388;11.350;2023-07-20T12:31:22;28.20;29.70
11140;DHT22;5624;49.388;11.350;2023-07-20T12:33:49;28.20;27.40
11140;DHT22;5624;49.388;11.350;2023-07-20T12:36:14;28.40;29.40
11140;DHT22;5624;49.388;11.350;2023-07-20T12:38:40;28.40;27.50
11140;DHT22;5624;49.388;11.350;2023-07-20T12:41:09;28.30;26.70
11140;DHT22;5624;49.388;11.350;2023-07-20T12:43:34;28.10;25.00
11140;DHT22;5624;49.388;11.350;2023-07-20T12:46:00;27.90;26.30
11140;DHT22;5624;49.388;11.350;2023-07-20T12:48:25;27.40;27.10
11140;DHT22;5624;49.388;11.350;2023-07-20T12:50:51;27.10;28.10
11140;DHT22;5624;49.388;11.350;2023-07-20T12:53:17;26.90;27.00
11140;DHT22;5624;49.388;11.350;2023-07-20T12:55:43;26.60;26.70
11140;DHT22;5624;49.388;11.350;2023-07-20T12:58:09;26.20;26.80
11140;DHT22;5624;49.388;11.350;2023-07-20T13:00:35;25.80;29.00
11140;DHT22;5624;49.388;11.350;2023-07-20T13:03:01;26.00;27.70
11140;DHT22;5624;49.388;11.350;2023-07-20T13:05:31;26.30;27.90
11140;DHT22;5624;49.388;11.350;2023-07-20T13:07:57;26.30;29.80
11140;DHT22;5624;49.388;11.350;2023-07-20T13:10:23;26.30;28.50
11140;DHT22;5624;49.388;11.350;2023-07-20T13:12:49;26.40;29.90
11140;DHT22;5624;49.388;11.350;2023-07-20T13:15:14;26.70;29.30
11140;DHT22;5624;49.388;11.350;2023-07-20T13:17:40;26.60;27.40
11140;DHT22;5624;49.388;11.350;2023-07-20T13:20:07;26.40;29.40
11140;DHT22;5624;49.388;11.350;2023-07-20T13:22:35;26.00;27.80
11140;DHT22;5624;49.388;11.350;2023-07-20T13:25:01;25.60;28.20
11140;DHT22;5624;49.388;11.350;2023-07-20T13:27:27;25.20;28.50
11140;DHT22;5624;49.388;11.350;2023-07-20T13:29:53;25.10;28.20
11140;DHT22;5624;49.388;11.350;2023-07-20T13:32:18;25.30;28.10
11140;DHT22;5624;49.388;11.350;2023-07-20T13:34:44;25.20;29.00
11140;DHT22;5624;49.388;11.350;2023-07-20T13:37:10;25.30;30.50
11140;DHT22;5624;49.388;11.350;2023-07-20T13:39:37;25.40;29.20
11140;DHT22;5624;49.388;11.350;2023-07-20T13:42:03;25.30;28.70
11140;DHT22;5624;49.388;11.350;2023-07-20T13:44:31;25.50;29.20
11140;DHT22;5624;49.388;11.350;2023-07-20T13:46:56;25.60;28.00
11140;DHT22;5624;49.388;11.350;2023-07-20T13:49:23;25.70;27.90
11140;DHT22;5624;49.388;11.350;2023-07-20T13:51:48;25.60;30.20
11140;DHT22;5624;49.388;11.350;2023-07-20T13:54:14;25.40;29.00
11140;DHT22;5624;49.388;11.350;2023-07-20T13:56:39;25.20;28.40
11140;DHT22;5624;49.388;11.350;2023-07-20T13:59:05;25.00;28.90
11140;DHT22;5624;49.388;11.350;2023-07-20T14:01:31;25.20;28.50
11140;DHT22;5624;49.388;11.350;2023-07-20T14:03:59;25.30;29.30
11140;DHT22;5624;49.388;11.350;2023-07-20T14:06:25;25.00;29.30
11140;DHT22;5624;49.388;11.350;2023-07-20T14:08:51;24.80;30.80
11140;DHT22;5624;49.388;11.350;2023-07-20T14:11:18;24.80;29.80
11140;DHT22;5624;49.388;11.350;2023-07-20T14:13:44;24.70;30.40
11140;DHT22;5624;49.388;11.350;2023-07-20T14:16:10;24.80;32.00
11140;DHT22;5624;49.388;11.350;2023-07-20T14:18:36;24.80;31.80
11140;DHT22;5624;49.388;11.350;2023-07-20T14:21:01;25.00;31.20
11140;DHT22;5624;49.388;11.350;2023-07-20T14:23:29;25.20;31.50
11140;DHT22;5624;49.388;11.350;2023-07-20T14:25:54;25.20;29.70
11140;DHT22;5624;49.388;11.350;2023-07-20T14:28:20;25.40;29.90
11140;DHT22;5624;49.388;11.350;2023-07-20T14:30:46;25.40;31.10
11140;DHT22;5624;49.388;11.350;2023-07-20T14:33:12;25.40;30.80
11140;DHT22;5624;49.388;11.350;2023-07-20T14:35:37;25.40;30.70
11140;DHT22;5624;49.388;11.350;2023-07-20T14:38:03;25.40;29.60
11140;DHT22;5624;49.388;11.350;2023-07-20T14:40:29;25.30;29.10
11140;DHT22;5624;49.388;11.350;2023-07-20T14:42:55;25.30;29.40
11140;DHT22;5624;49.388;11.350;2023-07-20T14:45:21;25.40;30.60
11140;DHT22;5624;49.388;11.350;2023-07-20T14:47:47;25.30;29.90
11140;DHT22;5624;49.388;11.350;2023-07-20T14:50:19;25.20;30.30
11140;DHT22;5624;49.388;11.350;2023-07-20T14:52:45;25.00;29.20
11140;DHT22;5624;49.388;11.350;2023-07-20T14:55:10;24.90;29.90
11140;DHT22;5624;49.388;11.350;2023-07-20T14:57:36;24.90;28.90
11140;DHT22;5624;49.388;11.350;2023-07-20T15:00:02;24.80;29.60
11140;DHT22;5624;49.388;11.350;2023-07-20T15:02:32;24.90;28.80
11140;DHT22;5624;49.388;11.350;2023-07-20T15:04:58;25.20;28.10
11140;DHT22;5624;49.388;11.350;2023-07-20T15:07:23;25.30;29.90
11140;DHT22;5624;49.388;11.350;2023-07-20T15:09:49;25.10;29.90
11140;DHT22;5624;49.388;11.350;2023-07-20T15:12:15;25.00;29.80
11140;DHT22;5624;49.388;11.350;2023-07-20T15:14:41;25.00;29.60
11140;DHT22;5624;49.388;11.350;2023-07-20T15:17:10;25.00;30.70
11140;DHT22;5624;49.388;11.350;2023-07-20T15:19:36;25.00;30.00
11140;DHT22;5624;49.388;11.350;2023-07-20T15:22:03;25.10;29.90
11140;DHT22;5624;49.388;11.350;2023-07-20T15:24:29;25.00;30.30
11140;DHT22;5624;49.388;11.350;2023-07-20T15:26:55;24.90;30.20
11140;DHT22;5624;49.388;11.350;2023-07-20T15:29:23;24.90;30.10
11140;DHT22;5624;49.388;11.350;2023-07-20T15:31:48;25.00;30.30
11140;DHT22;5624;49.388;11.350;2023-07-20T15:34:14;25.20;31.70
11140;DHT22;5624;49.388;11.350;2023-07-20T15:36:41;25.10;31.10
11140;DHT22;5624;49.388;11.350;2023-07-20T15:39:07;25.10;30.30
11140;DHT22;5624;49.388;11.350;2023-07-20T15:41:33;25.10;29.20
11140;DHT22;5624;49.388;11.350;2023-07-20T15:43:58;25.10;31.70